Beale Air Force Base
KBAB : now visible

Airfield :











YOU CAN JOIN US ON...

 
LOGIN :

Register | Disclaimer

   EN    FR    IT 

 









Legend :    VFR   Marginal VFR   IFR   Intensive IFR   Very Intensive IFR
Visi :
Ceiling :
>= 8 km
>= 3000ft
5 to 8 km
1000 to 3000 ft
1500m to 5 km
500 to 1000 ft
800 to 1500m
200 to 500 ft
< 800m
< 200 ft
Symbols :   Thunderstorms  Fog  Heavy snow  Heavy precipitations  Wind > 20 kt






- Airport Elevation : 113 ft


KBAB - Beale Air Force Base

CURRENT METAR :
  • 260013Z AUTO 00000KT 3/8SM R15/1600V3500FT HZ CLR 36/12 A2979 RMK AO2 SLP090 $

EXPIRED METARs :
  • 252343Z AUTO 18003KT 1/8SM R15/0600V2000FT HZ CLR 35/12 A2980 RMK AO2 SLP093 $
  • 252258Z AUTO 21006KT 3/8SM R15/0900V3500FT HZ CLR 35/11 A2981 RMK AO2 SLP097 T03500114 $
  • 252243Z AUTO 00000KT 1/8SM R15/0400V2400FT HZ CLR 34/11 A2981 RMK AO2 SLP097 $
  • 252213Z AUTO 21003KT 1/4SM R15/1000V3500FT HZ CLR 35/12 A2983 RMK AO2 SLP103 $
  • 252158Z AUTO 20004KT 1/8SM R15/0600V1800FT HZ CLR 34/12 A2983 RMK AO2 SLP103 T03430120 $

Expired Forecast.
KZOA FIR / North America



MET'MAP, your aeronautical weather chart ! - Copyright ORBIFLY December 2007 - Disclaimer

ORBIFLY MET'MAP TEAM :

Programming & Development : Alexandra Zaïnal
Concept & original design : Baudouin d'Aumeries
Assistance for programming : Marc-Olivier Méhu
Technical & hardware support : Manuel Goepfert

Contact : metmap@orbifly.com




SOURCES & CREDITS :

   NOAA       Earth
Advisory